createdAt,value
2018-01-21T00:01:56.859Z,33.20
2018-01-21T00:04:24.401Z,31.67
2018-01-21T00:06:51.959Z,32.33
2018-01-21T00:09:19.611Z,40.80
2018-01-21T00:11:47.154Z,39.03
2018-01-21T00:14:15.438Z,39.83
2018-01-21T00:16:42.984Z,32.30
2018-01-21T00:19:11.305Z,36.00
2018-01-21T00:21:38.853Z,40.63
2018-01-21T00:24:06.420Z,38.50
2018-01-21T00:26:34.607Z,38.90
2018-01-21T00:29:02.143Z,41.87
2018-01-21T00:31:29.748Z,41.70
2018-01-21T00:33:57.266Z,40.17
2018-01-21T00:36:24.802Z,37.37
2018-01-21T00:38:52.325Z,43.57
2018-01-21T00:41:19.881Z,54.00
2018-01-21T00:43:47.412Z,44.80
2018-01-21T00:46:14.962Z,39.80
2018-01-21T00:48:42.491Z,45.00
2018-01-21T00:51:10.096Z,41.47
2018-01-21T00:53:37.602Z,33.50
2018-01-21T00:56:05.199Z,45.70
2018-01-21T00:58:32.707Z,39.00
2018-01-21T01:01:00.996Z,38.57
2018-01-21T01:03:28.562Z,38.67
2018-01-21T01:05:56.098Z,38.90
2018-01-21T01:08:24.376Z,39.70
2018-01-21T01:10:52.706Z,39.87
2018-01-21T01:13:20.244Z,37.00
2018-01-21T01:15:47.820Z,33.90
2018-01-21T01:18:15.360Z,38.27
2018-01-21T01:20:42.872Z,35.27
2018-01-21T01:23:11.192Z,38.27
2018-01-21T01:25:38.714Z,39.47
2018-01-21T01:28:07.029Z,38.83
2018-01-21T01:30:34.574Z,38.50
2018-01-21T01:33:02.133Z,46.93
2018-01-21T01:35:29.660Z,41.93
2018-01-21T01:37:57.981Z,43.23
2018-01-21T01:40:25.526Z,37.17
2018-01-21T01:42:53.052Z,42.47
2018-01-21T01:45:21.881Z,45.10
2018-01-21T01:47:49.399Z,49.90
2018-01-21T01:50:17.715Z,41.03
2018-01-21T01:52:45.222Z,46.23
2018-01-21T01:55:13.520Z,44.27
2018-01-21T01:57:41.037Z,41.67
2018-01-21T02:00:08.561Z,42.93
2018-01-21T02:02:36.102Z,52.53
2018-01-21T02:05:03.647Z,39.57
2018-01-21T02:07:31.191Z,47.40
2018-01-21T02:09:58.698Z,50.87
2018-01-21T02:12:26.207Z,47.23
2018-01-21T02:14:54.510Z,48.73
2018-01-21T02:17:22.030Z,50.87
2018-01-21T02:19:49.490Z,52.63
2018-01-21T02:22:17.048Z,45.27
2018-01-21T02:24:45.326Z,79.67
2018-01-21T02:27:13.625Z,50.90
2018-01-21T02:29:41.176Z,49.33
2018-01-21T02:32:08.727Z,56.90
2018-01-21T02:34:36.281Z,66.23
2018-01-21T02:37:03.834Z,57.03
2018-01-21T02:39:32.098Z,58.77
2018-01-21T02:42:00.397Z,63.53
2018-01-21T02:44:27.901Z,48.13
2018-01-21T02:46:55.677Z,48.03
2018-01-21T02:49:23.191Z,45.90
2018-01-21T02:51:50.726Z,55.87
2018-01-21T02:54:19.035Z,51.70
2018-01-21T02:56:46.498Z,54.20
2018-01-21T02:59:14.031Z,46.40
2018-01-21T03:01:41.581Z,43.37
2018-01-21T03:04:09.124Z,53.37
2018-01-21T03:06:38.307Z,47.57
2018-01-21T03:09:06.575Z,46.70
2018-01-21T03:11:34.090Z,45.67
2018-01-21T03:14:01.587Z,46.77
2018-01-21T03:16:29.161Z,49.60
2018-01-21T03:18:56.673Z,53.60
2018-01-21T03:21:24.183Z,45.37
2018-01-21T03:23:51.711Z,43.60
2018-01-21T03:26:19.210Z,43.63
2018-01-21T03:28:46.778Z,47.13
2018-01-21T03:31:14.288Z,37.37
2018-01-21T03:33:41.835Z,42.63
2018-01-21T03:36:09.378Z,35.73
2018-01-21T03:38:36.909Z,37.33
2018-01-21T03:41:04.427Z,39.60
2018-01-21T03:43:31.958Z,43.57
2018-01-21T03:45:59.515Z,35.20
2018-01-21T03:48:27.021Z,36.40
2018-01-21T03:50:54.562Z,39.73
2018-01-21T03:53:22.909Z,34.20
2018-01-21T03:55:50.380Z,43.13
2018-01-21T03:58:18.719Z,31.97
2018-01-21T04:00:46.235Z,36.43
2018-01-21T04:03:15.284Z,33.47
2018-01-21T04:05:42.824Z,37.27
2018-01-21T04:08:10.345Z,37.10
2018-01-21T04:10:38.666Z,37.10
2018-01-21T04:13:06.178Z,31.70
2018-01-21T04:15:35.276Z,40.27
2018-01-21T04:18:03.538Z,35.50
2018-01-21T04:20:31.079Z,39.30
2018-01-21T04:22:59.581Z,33.07
2018-01-21T04:25:27.128Z,33.67
2018-01-21T04:27:55.442Z,30.07
2018-01-21T04:30:22.987Z,31.97
2018-01-21T04:32:50.480Z,35.23
2018-01-21T04:35:18.055Z,34.23
2018-01-21T04:37:45.564Z,32.50
2018-01-21T04:40:13.083Z,38.10
2018-01-21T04:42:40.952Z,36.30
2018-01-21T04:45:08.419Z,36.10
2018-01-21T04:47:35.991Z,43.60
2018-01-21T04:50:03.572Z,36.00
2018-01-21T04:52:31.137Z,35.03
2018-01-21T04:54:58.645Z,37.63
2018-01-21T04:57:26.894Z,29.53
2018-01-21T04:59:55.237Z,33.20
2018-01-21T05:02:23.464Z,35.73
2018-01-21T05:04:51.758Z,32.90
2018-01-21T05:07:20.119Z,32.27
2018-01-21T05:09:48.443Z,28.90
2018-01-21T05:12:16.007Z,61.03
2018-01-21T05:14:44.458Z,36.33
2018-01-21T05:17:11.999Z,34.90
2018-01-21T05:19:39.471Z,42.80
2018-01-21T05:22:07.034Z,39.37
2018-01-21T05:24:34.786Z,33.00
2018-01-21T05:27:02.328Z,41.00
2018-01-21T05:29:30.615Z,35.07
2018-01-21T05:31:58.157Z,35.97
2018-01-21T05:34:26.395Z,34.60
2018-01-21T05:36:53.990Z,35.70
2018-01-21T05:39:22.320Z,36.63
2018-01-21T05:41:49.863Z,32.90
2018-01-21T05:44:18.205Z,36.00
2018-01-21T05:46:46.462Z,41.27
2018-01-21T05:49:14.805Z,33.20
2018-01-21T05:51:43.098Z,42.37
2018-01-21T05:54:10.603Z,37.50
2018-01-21T05:56:38.142Z,35.67
2018-01-21T05:59:05.653Z,43.20
2018-01-21T06:01:33.174Z,37.97
2018-01-21T06:04:00.729Z,42.13
2018-01-21T06:06:29.014Z,39.50
2018-01-21T06:08:56.591Z,52.40
2018-01-21T06:11:24.115Z,50.10
2018-01-21T06:13:52.389Z,43.87
2018-01-21T06:16:20.711Z,37.10
2018-01-21T06:18:48.213Z,42.30
2018-01-21T06:21:16.535Z,43.77
2018-01-21T06:23:44.086Z,37.00
2018-01-21T06:26:11.659Z,39.83
2018-01-21T06:28:39.194Z,40.57
2018-01-21T06:31:06.757Z,40.40
2018-01-21T06:33:35.067Z,36.63
2018-01-21T06:36:02.592Z,48.27
2018-01-21T06:38:30.807Z,43.87
2018-01-21T06:40:58.347Z,39.03
2018-01-21T06:43:25.883Z,45.20
2018-01-21T06:45:53.399Z,43.80
2018-01-21T06:48:21.700Z,40.77
2018-01-21T06:50:49.217Z,49.43
2018-01-21T06:53:16.732Z,43.10
2018-01-21T06:55:44.266Z,39.70
2018-01-21T06:58:11.794Z,46.47
2018-01-21T07:00:39.308Z,42.17
2018-01-21T07:03:06.851Z,46.47
2018-01-21T07:05:34.384Z,42.40
2018-01-21T07:08:02.725Z,46.43
2018-01-21T07:10:30.307Z,45.97
2018-01-21T07:12:57.827Z,52.60
2018-01-21T07:15:25.359Z,55.50
2018-01-21T07:17:52.902Z,45.10
2018-01-21T07:20:20.451Z,43.37
2018-01-21T07:22:47.987Z,39.20
2018-01-21T07:25:15.512Z,38.10
2018-01-21T07:27:43.058Z,44.63
2018-01-21T07:30:10.579Z,47.13
2018-01-21T07:32:38.887Z,48.07
2018-01-21T07:35:06.431Z,46.93
2018-01-21T07:37:33.941Z,48.33
2018-01-21T07:40:01.486Z,45.67
2018-01-21T07:42:32.771Z,50.23
2018-01-21T07:45:01.091Z,56.03
2018-01-21T07:47:28.655Z,45.80
2018-01-21T07:49:56.182Z,42.07
2018-01-21T07:52:23.735Z,48.87
2018-01-21T07:54:51.251Z,45.27
2018-01-21T07:57:18.789Z,44.50
2018-01-21T07:59:46.328Z,44.57
2018-01-21T08:02:13.830Z,40.63
2018-01-21T08:04:41.366Z,42.77
2018-01-21T08:07:08.895Z,145.00
2018-01-21T08:09:36.440Z,40.37
2018-01-21T08:12:03.994Z,160.30
2018-01-21T08:14:31.569Z,59.87
2018-01-21T08:16:59.075Z,46.20
2018-01-21T08:19:26.739Z,46.83
2018-01-21T08:21:55.051Z,52.23
2018-01-21T08:24:22.766Z,54.10
2018-01-21T08:26:50.353Z,67.80
2018-01-21T08:29:18.737Z,53.43
2018-01-21T08:31:47.146Z,56.53
2018-01-21T08:34:20.297Z,57.93
2018-01-21T08:36:54.174Z,56.47
2018-01-21T08:39:27.387Z,87.83
2018-01-21T08:41:55.854Z,86.23
2018-01-21T08:44:23.390Z,53.77
2018-01-21T08:46:50.938Z,43.53
2018-01-21T08:49:18.488Z,49.90
2018-01-21T08:51:46.294Z,40.13
2018-01-21T08:54:13.843Z,40.03
2018-01-21T08:56:41.366Z,42.03
2018-01-21T08:59:08.924Z,37.73
2018-01-21T09:01:37.667Z,33.57
2018-01-21T09:04:06.999Z,42.10
2018-01-21T09:06:34.540Z,41.90
2018-01-21T09:09:02.065Z,38.00
2018-01-21T09:11:29.738Z,38.53
2018-01-21T09:13:58.088Z,34.13
2018-01-21T09:16:25.607Z,34.43
2018-01-21T09:18:53.164Z,44.23
2018-01-21T09:21:20.734Z,47.40
2018-01-21T09:23:48.278Z,44.50
2018-01-21T09:26:15.879Z,31.13
2018-01-21T09:28:43.439Z,35.90
2018-01-21T09:31:12.835Z,30.17
2018-01-21T09:33:40.407Z,32.27
2018-01-21T09:36:07.983Z,34.70
2018-01-21T09:38:36.740Z,32.70
2018-01-21T09:41:04.287Z,28.80
2018-01-21T09:43:31.822Z,38.13
2018-01-21T09:45:59.431Z,31.20
2018-01-21T09:48:26.947Z,36.47
2018-01-21T09:50:54.523Z,31.47
2018-01-21T09:53:22.051Z,33.53
2018-01-21T09:55:49.563Z,34.23
2018-01-21T09:58:17.218Z,26.30
2018-01-21T10:00:44.794Z,31.80
2018-01-21T10:03:12.354Z,27.70
2018-01-21T10:05:40.718Z,27.40
2018-01-21T10:08:09.022Z,28.90
2018-01-21T10:10:36.601Z,30.97
2018-01-21T10:13:04.223Z,32.40
2018-01-21T10:15:32.537Z,23.23
2018-01-21T10:18:00.056Z,23.40
2018-01-21T10:20:27.600Z,19.83
2018-01-21T10:22:55.124Z,28.17
2018-01-21T10:25:22.922Z,28.90
2018-01-21T10:27:50.605Z,24.67
2018-01-21T10:30:18.131Z,25.33
2018-01-21T10:32:45.672Z,23.70
2018-01-21T10:35:13.259Z,29.27
2018-01-21T10:37:41.545Z,30.40
2018-01-21T10:40:09.151Z,23.50
2018-01-21T10:42:36.687Z,28.10
2018-01-21T10:45:04.279Z,29.10
2018-01-21T10:47:31.848Z,31.00
2018-01-21T10:49:59.398Z,29.07
2018-01-21T10:52:26.954Z,26.90
2018-01-21T10:54:54.618Z,26.87
2018-01-21T10:57:23.056Z,29.70
2018-01-21T10:59:50.712Z,23.37
2018-01-21T11:02:18.333Z,22.60
2018-01-21T11:04:45.887Z,24.30
2018-01-21T11:07:14.567Z,36.93
2018-01-21T11:09:43.142Z,39.67
2018-01-21T11:12:10.713Z,41.77
2018-01-21T11:14:41.090Z,41.90
2018-01-21T11:17:09.620Z,89.53
2018-01-21T11:19:37.190Z,39.83
2018-01-21T11:22:05.513Z,24.50
2018-01-21T11:24:33.068Z,34.83
2018-01-21T11:27:01.306Z,35.77
2018-01-21T11:29:29.616Z,27.73
2018-01-21T11:31:57.198Z,40.30
2018-01-21T11:34:25.715Z,25.83
2018-01-21T11:36:54.031Z,18.00
2018-01-21T11:39:21.574Z,17.87
2018-01-21T11:41:49.149Z,22.50
2018-01-21T11:44:17.367Z,24.77
2018-01-21T11:46:46.098Z,25.27
2018-01-21T11:49:13.656Z,26.60
2018-01-21T11:51:41.184Z,23.00
2018-01-21T11:54:09.497Z,17.37
2018-01-21T11:56:37.074Z,18.33
2018-01-21T11:59:04.619Z,15.50
2018-01-21T12:01:33.089Z,19.27
2018-01-21T12:04:00.648Z,24.00
2018-01-21T12:06:28.179Z,20.27
2018-01-21T12:08:56.498Z,18.90
2018-01-21T12:11:24.020Z,17.30
2018-01-21T12:13:51.555Z,16.70
2018-01-21T12:16:19.871Z,17.53
2018-01-21T12:18:47.375Z,21.23
2018-01-21T12:21:14.897Z,18.37
2018-01-21T12:23:42.573Z,21.63
2018-01-21T12:26:10.094Z,23.00
2018-01-21T12:28:37.663Z,19.60
2018-01-21T12:31:05.219Z,22.17
2018-01-21T12:33:32.731Z,23.37
2018-01-21T12:36:00.281Z,17.10
2018-01-21T12:38:27.802Z,24.83
2018-01-21T12:40:55.363Z,17.23
2018-01-21T12:43:22.867Z,20.53
2018-01-21T12:45:51.146Z,21.30
2018-01-21T12:48:19.437Z,14.90
2018-01-21T12:50:49.520Z,13.10
2018-01-21T12:53:17.087Z,11.80
2018-01-21T12:55:44.638Z,15.20
2018-01-21T12:58:12.201Z,16.20
2018-01-21T13:00:40.497Z,12.77
2018-01-21T13:03:08.011Z,19.00
2018-01-21T13:05:35.549Z,21.10
2018-01-21T13:08:03.097Z,23.47
2018-01-21T13:10:30.649Z,21.70
2018-01-21T13:12:58.689Z,21.10
2018-01-21T13:15:27.097Z,25.67
2018-01-21T13:17:54.646Z,26.17
2018-01-21T13:20:22.166Z,24.00
2018-01-21T13:22:49.725Z,18.07
2018-01-21T13:25:17.245Z,18.80
2018-01-21T13:27:44.852Z,23.20
2018-01-21T13:30:13.161Z,23.53
2018-01-21T13:32:40.730Z,22.17
2018-01-21T13:35:09.777Z,17.93
2018-01-21T13:37:38.124Z,17.80
2018-01-21T13:40:05.671Z,17.23
2018-01-21T13:42:33.198Z,16.87
2018-01-21T13:45:00.809Z,14.83
2018-01-21T13:47:28.291Z,15.23
2018-01-21T13:49:56.650Z,23.97
2018-01-21T13:52:24.214Z,20.63
2018-01-21T13:54:51.786Z,21.20
2018-01-21T13:57:19.305Z,19.67
2018-01-21T13:59:46.915Z,19.67
2018-01-21T14:02:14.444Z,29.80
2018-01-21T14:04:42.013Z,25.77
2018-01-21T14:07:10.318Z,22.67
2018-01-21T14:09:37.887Z,24.50
2018-01-21T14:12:05.431Z,61.40
2018-01-21T14:14:32.989Z,23.17
2018-01-21T14:17:00.534Z,30.90
2018-01-21T14:19:28.092Z,21.60
2018-01-21T14:21:56.359Z,20.73
2018-01-21T14:24:25.088Z,18.30
2018-01-21T14:26:52.647Z,18.70
2018-01-21T14:29:20.164Z,15.63
2018-01-21T14:31:48.562Z,23.90
2018-01-21T14:34:16.115Z,15.07
2018-01-21T14:36:43.655Z,20.80
2018-01-21T14:39:11.953Z,17.63
2018-01-21T14:41:39.501Z,18.60
2018-01-21T14:44:07.056Z,25.10
2018-01-21T14:46:34.585Z,14.50
2018-01-21T14:49:02.136Z,19.57
2018-01-21T14:51:29.670Z,20.50
2018-01-21T14:53:57.206Z,13.90
2018-01-21T14:56:24.749Z,29.33
2018-01-21T14:58:52.286Z,14.43
2018-01-21T15:01:20.617Z,18.27
2018-01-21T15:03:48.143Z,17.50
2018-01-21T15:06:15.687Z,27.40
2018-01-21T15:08:44.007Z,22.70
2018-01-21T15:11:11.526Z,20.93
2018-01-21T15:13:39.067Z,19.50
2018-01-21T15:16:06.641Z,16.07
2018-01-21T15:18:34.234Z,25.77
2018-01-21T15:21:01.799Z,27.80
2018-01-21T15:23:29.314Z,17.27
2018-01-21T15:25:57.369Z,21.37
2018-01-21T15:28:25.745Z,17.33
2018-01-21T15:30:54.077Z,22.30
2018-01-21T15:33:21.589Z,18.73
2018-01-21T15:35:49.168Z,17.60
2018-01-21T15:38:16.693Z,17.50
2018-01-21T15:40:45.114Z,21.87
2018-01-21T15:43:12.644Z,19.10
2018-01-21T15:45:40.177Z,27.90
2018-01-21T15:48:07.740Z,20.07
2018-01-21T15:50:35.708Z,20.50
2018-01-21T15:53:04.027Z,17.03
2018-01-21T15:55:31.675Z,26.40
2018-01-21T15:57:59.239Z,18.10
2018-01-21T16:00:26.810Z,25.53
2018-01-21T16:02:54.331Z,15.43
2018-01-21T16:05:22.670Z,22.13
2018-01-21T16:07:50.191Z,16.60
2018-01-21T16:10:17.729Z,11.90
2018-01-21T16:12:45.401Z,25.50
2018-01-21T16:15:12.922Z,24.60
2018-01-21T16:17:41.264Z,12.67
2018-01-21T16:20:08.818Z,20.07
2018-01-21T16:22:36.358Z,16.97
2018-01-21T16:25:03.905Z,12.67
2018-01-21T16:27:31.418Z,18.07
2018-01-21T16:29:59.016Z,16.03
2018-01-21T16:32:26.579Z,16.40
2018-01-21T16:34:54.108Z,14.07
2018-01-21T16:37:34.707Z,13.03
2018-01-21T16:40:02.393Z,14.60
2018-01-21T16:42:29.952Z,18.63
2018-01-21T16:44:57.471Z,10.53
2018-01-21T16:47:25.036Z,13.70
2018-01-21T16:49:53.612Z,12.00
2018-01-21T16:52:21.783Z,20.80
2018-01-21T16:54:49.280Z,15.80
2018-01-21T16:57:16.868Z,10.57
2018-01-21T16:59:45.438Z,10.97
2018-01-21T17:02:13.006Z,17.53
2018-01-21T17:04:41.398Z,12.53
2018-01-21T17:07:09.721Z,15.13
2018-01-21T17:09:37.256Z,19.03
2018-01-21T17:12:04.780Z,20.07
2018-01-21T17:14:32.363Z,18.70
2018-01-21T17:16:59.907Z,20.73
2018-01-21T17:19:28.259Z,17.53
2018-01-21T17:21:55.778Z,17.50
2018-01-21T17:24:23.306Z,17.63
2018-01-21T17:26:51.580Z,17.00
2018-01-21T17:29:20.714Z,15.70
2018-01-21T17:31:48.268Z,17.00
2018-01-21T17:34:15.800Z,24.40
2018-01-21T17:36:43.360Z,19.73
2018-01-21T17:39:10.905Z,15.87
2018-01-21T17:41:39.328Z,22.37
2018-01-21T17:44:06.933Z,19.77
2018-01-21T17:46:35.256Z,19.40
2018-01-21T17:49:02.775Z,15.90
2018-01-21T17:51:31.063Z,14.33
2018-01-21T17:53:58.614Z,20.30
2018-01-21T17:56:26.925Z,20.63
2018-01-21T17:58:55.084Z,22.80
2018-01-21T18:01:22.680Z,19.83
2018-01-21T18:03:50.303Z,18.70
2018-01-21T18:06:17.838Z,17.70
2018-01-21T18:08:46.015Z,17.83
2018-01-21T18:11:13.571Z,18.67
2018-01-21T18:13:42.647Z,16.13
2018-01-21T18:16:10.246Z,17.53
2018-01-21T18:18:37.769Z,17.37
2018-01-21T18:21:06.284Z,16.63
2018-01-21T18:23:34.751Z,20.40
2018-01-21T18:26:02.266Z,16.00
2018-01-21T18:28:29.822Z,16.83
2018-01-21T18:30:57.359Z,16.03
2018-01-21T18:33:24.920Z,22.63
2018-01-21T18:35:52.453Z,16.07
2018-01-21T18:38:19.998Z,21.33
2018-01-21T18:40:50.464Z,19.73
2018-01-21T18:43:18.019Z,22.90
2018-01-21T18:45:45.799Z,21.67
2018-01-21T18:48:14.135Z,21.57
2018-01-21T18:50:41.699Z,14.30
2018-01-21T18:53:09.247Z,13.67
2018-01-21T18:55:37.629Z,22.67
2018-01-21T18:58:05.176Z,17.10
2018-01-21T19:00:33.738Z,16.87
2018-01-21T19:03:02.090Z,15.00
2018-01-21T19:05:30.036Z,18.67
2018-01-21T19:07:57.664Z,15.03
2018-01-21T19:10:25.192Z,15.20
2018-01-21T19:12:53.532Z,15.23
2018-01-21T19:15:21.902Z,19.40
2018-01-21T19:17:49.428Z,13.80
2018-01-21T19:20:16.967Z,19.83
2018-01-21T19:22:45.261Z,18.00
2018-01-21T19:25:12.828Z,15.93
2018-01-21T19:27:40.385Z,12.33
2018-01-21T19:30:08.150Z,15.43
2018-01-21T19:32:36.243Z,20.17
2018-01-21T19:35:03.779Z,17.53
2018-01-21T19:37:32.003Z,16.50
2018-01-21T19:40:05.311Z,13.50
2018-01-21T19:42:39.174Z,17.80
2018-01-21T19:45:06.723Z,16.30
2018-01-21T19:47:34.289Z,24.10
2018-01-21T19:50:01.808Z,19.10
2018-01-21T19:52:29.371Z,14.07
2018-01-21T19:54:56.914Z,27.13
2018-01-21T19:57:24.447Z,16.13
2018-01-21T19:59:53.662Z,21.20
2018-01-21T20:02:21.264Z,11.83
2018-01-21T20:04:49.265Z,16.20
2018-01-21T20:07:17.625Z,16.40
2018-01-21T20:09:45.214Z,13.50
2018-01-21T20:12:13.509Z,12.73
2018-01-21T20:14:41.097Z,12.53
2018-01-21T20:17:08.731Z,12.50
2018-01-21T20:19:36.315Z,9.80
2018-01-21T20:22:03.854Z,9.10
2018-01-21T20:24:32.243Z,8.67
2018-01-21T20:26:59.799Z,9.30
2018-01-21T20:29:27.740Z,6.23
2018-01-21T20:31:55.303Z,6.60
2018-01-21T20:34:22.872Z,7.87
2018-01-21T20:36:50.447Z,11.33
2018-01-21T20:39:18.007Z,6.80
2018-01-21T20:41:45.595Z,7.83
2018-01-21T20:44:13.256Z,8.20
2018-01-21T20:46:40.850Z,9.13
2018-01-21T20:49:09.535Z,7.17
2018-01-21T20:51:43.458Z,8.40
2018-01-21T20:54:16.527Z,13.67
2018-01-21T20:56:45.562Z,5.53
2018-01-21T20:59:13.140Z,11.30
2018-01-21T21:01:40.666Z,6.63
2018-01-21T21:04:08.203Z,5.43
2018-01-21T21:06:36.500Z,9.07
2018-01-21T21:09:05.983Z,7.17
2018-01-21T21:11:37.284Z,8.53
2018-01-21T21:14:04.827Z,6.63
2018-01-21T21:16:34.683Z,5.90
2018-01-21T21:19:02.975Z,11.43
2018-01-21T21:21:30.519Z,6.30
2018-01-21T21:23:58.120Z,10.47
2018-01-21T21:26:28.815Z,7.67
2018-01-21T21:28:57.120Z,6.87
2018-01-21T21:31:25.593Z,7.90
2018-01-21T21:33:53.173Z,10.73
2018-01-21T21:36:20.698Z,7.77
2018-01-21T21:38:49.798Z,5.60
2018-01-21T21:41:17.326Z,11.97
2018-01-21T21:43:45.644Z,8.37
2018-01-21T21:46:13.219Z,7.83
2018-01-21T21:48:42.570Z,7.03
2018-01-21T21:51:10.196Z,13.17
2018-01-21T21:53:39.397Z,5.87
2018-01-21T21:56:07.370Z,6.63
2018-01-21T21:58:35.761Z,4.57
2018-01-21T22:01:04.085Z,4.87
2018-01-21T22:03:32.569Z,6.40
2018-01-21T22:06:00.928Z,4.30
2018-01-21T22:08:28.499Z,8.03
2018-01-21T22:10:56.036Z,4.80
2018-01-21T22:13:24.028Z,8.70
2018-01-21T22:15:52.044Z,4.40
2018-01-21T22:18:21.233Z,3.90
2018-01-21T22:20:49.335Z,5.23
2018-01-21T22:23:16.912Z,3.33
2018-01-21T22:25:44.480Z,6.17
2018-01-21T22:28:12.101Z,3.87
2018-01-21T22:30:40.494Z,5.27
2018-01-21T22:33:08.679Z,3.63
2018-01-21T22:35:36.216Z,4.37
2018-01-21T22:38:04.507Z,5.33
2018-01-21T22:40:32.078Z,3.40
2018-01-21T22:42:59.761Z,2.50
2018-01-21T22:45:27.351Z,3.80
2018-01-21T22:47:55.663Z,2.37
2018-01-21T22:50:24.794Z,2.67
2018-01-21T22:52:52.347Z,2.87
2018-01-21T22:55:19.989Z,3.93
2018-01-21T22:57:47.555Z,4.10
2018-01-21T23:00:17.063Z,2.50
2018-01-21T23:02:44.641Z,2.33
2018-01-21T23:05:12.183Z,3.47
2018-01-21T23:07:39.739Z,3.80
2018-01-21T23:10:07.338Z,2.17
2018-01-21T23:12:34.883Z,1.70
2018-01-21T23:15:02.489Z,2.40
2018-01-21T23:17:33.249Z,1.60
2018-01-21T23:20:00.796Z,2.10
2018-01-21T23:22:29.319Z,1.93
2018-01-21T23:24:57.628Z,2.23
2018-01-21T23:27:26.694Z,1.27
2018-01-21T23:29:55.851Z,1.40
2018-01-21T23:32:24.947Z,1.83
2018-01-21T23:34:52.514Z,1.90
2018-01-21T23:37:20.056Z,1.60
2018-01-21T23:39:47.573Z,1.57
2018-01-21T23:42:15.154Z,2.00
2018-01-21T23:44:43.367Z,1.00
2018-01-21T23:47:10.885Z,1.60
2018-01-21T23:49:38.440Z,2.40
2018-01-21T23:52:05.962Z,1.50
2018-01-21T23:54:34.278Z,1.30
2018-01-21T23:57:01.797Z,1.90
2018-01-21T23:59:33.298Z,1.10
